THY2205 LTFJ-LTAI
Flight info
| Callsign | THY2205 |
|---|---|
| Flight time | N/A |
| Altitude | 29000 |
| Route | ROXUK UN617 ERVAG UT305 TEKDO UT35 BABSA |
| Aircraft | A21N/M-SDE3FGHIRWY/LB1 |
Departure
| Time | N/A |
|---|---|
| Airport | Istanbul Sabiha Gökçen International Airport (LTFJ) |
Arrival
| Time | 2026-05-08 04:42 |
|---|---|
| Airport | Antalya International Airport (LTAI) |
| Time | Latitude | Longitude | Altitude | Speed | Heading |
|---|---|---|---|---|---|
| 2026-05-08 04:14 | 38.94207 | 30.17871 | 29218 ft | 459 kts | 186° |
| 2026-05-08 04:14 | 38.91042 | 30.17723 | 29227 ft | 459 kts | 186° |
| 2026-05-08 04:15 | 38.84617 | 30.17460 | 29222 ft | 460 kts | 185° |
| 2026-05-08 04:15 | 38.78337 | 30.17227 | 29222 ft | 460 kts | 185° |
| 2026-05-08 04:16 | 38.72242 | 30.17009 | 29221 ft | 460 kts | 185° |
| 2026-05-08 04:16 | 38.65806 | 30.16779 | 29212 ft | 461 kts | 185° |
| 2026-05-08 04:17 | 38.59388 | 30.16551 | 29219 ft | 462 kts | 186° |
| 2026-05-08 04:17 | 38.52976 | 30.16324 | 29224 ft | 463 kts | 186° |
| 2026-05-08 04:18 | 38.46512 | 30.16095 | 29225 ft | 464 kts | 186° |
| 2026-05-08 04:18 | 38.40058 | 30.15867 | 29221 ft | 464 kts | 186° |
| 2026-05-08 04:19 | 38.33589 | 30.16269 | 29219 ft | 471 kts | 174° |
| 2026-05-08 04:19 | 38.30405 | 30.17184 | 28950 ft | 476 kts | 166° |
| 2026-05-08 04:19 | 38.27269 | 30.18530 | 28323 ft | 479 kts | 162° |
| 2026-05-08 04:20 | 38.24134 | 30.20020 | 27563 ft | 480 kts | 161° |
| 2026-05-08 04:20 | 38.21021 | 30.21500 | 27098 ft | 474 kts | 161° |
| 2026-05-08 04:20 | 38.17968 | 30.22936 | 26638 ft | 468 kts | 162° |
| 2026-05-08 04:20 | 38.14931 | 30.24344 | 26174 ft | 462 kts | 162° |
| 2026-05-08 04:21 | 38.11950 | 30.25718 | 25767 ft | 455 kts | 162° |
| 2026-05-08 04:21 | 38.09003 | 30.27068 | 25613 ft | 441 kts | 162° |
| 2026-05-08 04:21 | 38.06154 | 30.28375 | 25398 ft | 430 kts | 162° |
| 2026-05-08 04:21 | 38.03385 | 30.29624 | 25266 ft | 417 kts | 164° |
| 2026-05-08 04:22 | 38.00657 | 30.30641 | 25083 ft | 405 kts | 168° |
| 2026-05-08 04:22 | 37.97967 | 30.31375 | 25094 ft | 392 kts | 172° |
| 2026-05-08 04:22 | 37.95281 | 30.32020 | 25117 ft | 392 kts | 172° |
| 2026-05-08 04:22 | 37.92601 | 30.32651 | 25138 ft | 392 kts | 172° |
| 2026-05-08 04:23 | 37.89965 | 30.33278 | 25157 ft | 393 kts | 172° |
| 2026-05-08 04:23 | 37.87220 | 30.33931 | 25166 ft | 393 kts | 172° |
| 2026-05-08 04:23 | 37.84510 | 30.34580 | 25162 ft | 394 kts | 172° |
| 2026-05-08 04:23 | 37.81819 | 30.35228 | 25165 ft | 394 kts | 172° |
| 2026-05-08 04:24 | 37.79136 | 30.35873 | 25157 ft | 394 kts | 172° |
| 2026-05-08 04:24 | 37.76442 | 30.36520 | 25050 ft | 395 kts | 172° |
| 2026-05-08 04:24 | 37.73754 | 30.37237 | 24583 ft | 395 kts | 169° |
| 2026-05-08 04:24 | 37.71097 | 30.38200 | 24203 ft | 392 kts | 163° |
| 2026-05-08 04:25 | 37.68573 | 30.39357 | 23834 ft | 388 kts | 161° |
| 2026-05-08 04:25 | 37.66031 | 30.40583 | 23453 ft | 384 kts | 161° |
| 2026-05-08 04:25 | 37.63553 | 30.41785 | 23092 ft | 380 kts | 161° |
| 2026-05-08 04:25 | 37.61119 | 30.42962 | 22726 ft | 376 kts | 161° |
| 2026-05-08 04:26 | 37.58679 | 30.44137 | 22329 ft | 373 kts | 161° |
| 2026-05-08 04:26 | 37.56270 | 30.45293 | 21966 ft | 369 kts | 161° |
| 2026-05-08 04:26 | 37.53901 | 30.46427 | 21568 ft | 367 kts | 161° |
| 2026-05-08 04:26 | 37.51508 | 30.47574 | 21153 ft | 365 kts | 161° |
| 2026-05-08 04:27 | 37.49164 | 30.48695 | 20753 ft | 362 kts | 160° |
| 2026-05-08 04:27 | 37.46819 | 30.49814 | 20357 ft | 360 kts | 160° |
| 2026-05-08 04:27 | 37.44484 | 30.50926 | 19960 ft | 358 kts | 160° |
| 2026-05-08 04:27 | 37.42151 | 30.52039 | 19558 ft | 356 kts | 160° |
| 2026-05-08 04:28 | 37.39814 | 30.53062 | 19149 ft | 353 kts | 168° |
| 2026-05-08 04:28 | 37.37407 | 30.53468 | 18750 ft | 347 kts | 182° |
| 2026-05-08 04:28 | 37.35019 | 30.53272 | 18371 ft | 343 kts | 189° |
| 2026-05-08 04:28 | 37.32675 | 30.52914 | 17981 ft | 341 kts | 190° |
| 2026-05-08 04:29 | 37.30338 | 30.52546 | 17608 ft | 338 kts | 189° |
| 2026-05-08 04:29 | 37.27984 | 30.52194 | 17228 ft | 336 kts | 189° |
| 2026-05-08 04:29 | 37.25688 | 30.51866 | 16853 ft | 335 kts | 189° |
| 2026-05-08 04:29 | 37.23377 | 30.51542 | 16471 ft | 333 kts | 189° |
| 2026-05-08 04:30 | 37.21080 | 30.51224 | 16099 ft | 332 kts | 188° |
| 2026-05-08 04:30 | 37.18780 | 30.50904 | 15709 ft | 331 kts | 189° |
| 2026-05-08 04:30 | 37.16480 | 30.50585 | 15253 ft | 330 kts | 188° |
| 2026-05-08 04:30 | 37.14214 | 30.50272 | 14608 ft | 333 kts | 188° |
| 2026-05-08 04:31 | 37.11887 | 30.49970 | 13876 ft | 337 kts | 184° |
| 2026-05-08 04:31 | 37.09591 | 30.50382 | 13127 ft | 342 kts | 157° |
| 2026-05-08 04:31 | 37.07670 | 30.52078 | 12388 ft | 340 kts | 127° |
| 2026-05-08 04:31 | 37.06579 | 30.54615 | 11870 ft | 328 kts | 104° |
| 2026-05-08 04:32 | 37.05981 | 30.57363 | 11533 ft | 320 kts | 101° |
| 2026-05-08 04:32 | 37.05384 | 30.59976 | 11349 ft | 310 kts | 104° |
| 2026-05-08 04:32 | 37.04713 | 30.62474 | 11272 ft | 302 kts | 106° |
| 2026-05-08 04:32 | 37.03982 | 30.64939 | 11209 ft | 301 kts | 108° |
| 2026-05-08 04:33 | 37.03162 | 30.67350 | 11152 ft | 302 kts | 118° |
| 2026-05-08 04:33 | 37.01709 | 30.69208 | 10958 ft | 304 kts | 150° |
| 2026-05-08 04:33 | 36.99694 | 30.69952 | 10320 ft | 308 kts | 180° |
| 2026-05-08 04:33 | 36.97605 | 30.69384 | 9632 ft | 310 kts | 204° |
| 2026-05-08 04:34 | 36.95566 | 30.68423 | 8908 ft | 315 kts | 197° |
| 2026-05-08 04:34 | 36.93418 | 30.67827 | 8147 ft | 318 kts | 189° |
| 2026-05-08 04:34 | 36.91228 | 30.67494 | 7412 ft | 320 kts | 185° |
| 2026-05-08 04:34 | 36.89014 | 30.67275 | 6668 ft | 318 kts | 184° |
| 2026-05-08 04:35 | 36.86851 | 30.67098 | 5919 ft | 312 kts | 183° |
| 2026-05-08 04:35 | 36.84700 | 30.66930 | 5170 ft | 307 kts | 183° |
| 2026-05-08 04:35 | 36.82585 | 30.66762 | 4514 ft | 302 kts | 184° |
| 2026-05-08 04:35 | 36.80513 | 30.66592 | 4072 ft | 293 kts | 184° |
| 2026-05-08 04:36 | 36.78516 | 30.66427 | 3798 ft | 279 kts | 184° |
| 2026-05-08 04:36 | 36.76653 | 30.66272 | 3724 ft | 259 kts | 183° |
| 2026-05-08 04:36 | 36.74926 | 30.66143 | 3622 ft | 242 kts | 179° |
| 2026-05-08 04:36 | 36.73348 | 30.66644 | 3381 ft | 228 kts | 141° |
| 2026-05-08 04:37 | 36.72474 | 30.68184 | 3256 ft | 221 kts | 99° |
| 2026-05-08 04:37 | 36.72653 | 30.70044 | 3123 ft | 217 kts | 57° |
| 2026-05-08 04:37 | 36.73606 | 30.71465 | 3021 ft | 216 kts | 45° |
| 2026-05-08 04:37 | 36.74598 | 30.72871 | 2747 ft | 218 kts | 50° |
| 2026-05-08 04:38 | 36.75482 | 30.74367 | 2501 ft | 211 kts | 54° |
| 2026-05-08 04:38 | 36.76282 | 30.75887 | 2135 ft | 205 kts | 56° |
| 2026-05-08 04:38 | 36.77004 | 30.77353 | 1833 ft | 188 kts | 57° |
| 2026-05-08 04:38 | 36.77634 | 30.78633 | 1757 ft | 160 kts | 49° |
| 2026-05-08 04:39 | 36.78523 | 30.79314 | 1775 ft | 147 kts | 16° |
| 2026-05-08 04:39 | 36.79515 | 30.79558 | 1770 ft | 145 kts | 7° |
| 2026-05-08 04:39 | 36.80518 | 30.79697 | 1665 ft | 145 kts | 6° |
| 2026-05-08 04:39 | 36.81522 | 30.79820 | 1476 ft | 144 kts | 6° |
| 2026-05-08 04:40 | 36.82512 | 30.79950 | 1291 ft | 143 kts | 6° |
| 2026-05-08 04:40 | 36.83504 | 30.80087 | 1102 ft | 143 kts | 6° |
| 2026-05-08 04:40 | 36.84494 | 30.80226 | 912 ft | 142 kts | 6° |
| 2026-05-08 04:40 | 36.85478 | 30.80362 | 721 ft | 142 kts | 6° |
| 2026-05-08 04:41 | 36.86457 | 30.80495 | 530 ft | 141 kts | 5° |
| 2026-05-08 04:41 | 36.87433 | 30.80639 | 347 ft | 140 kts | 6° |
| 2026-05-08 04:41 | 36.88387 | 30.80768 | 190 ft | 135 kts | 5° |
| 2026-05-08 04:41 | 36.89212 | 30.80878 | 185 ft | 100 kts | 6° |
| 2026-05-08 04:42 | 36.89756 | 30.80951 | 185 ft | 43 kts | 4° |
| 2026-05-08 04:42 | 36.89941 | 30.80922 | 185 ft | 22 kts | 343° |
| 2026-05-08 04:42 | 36.90054 | 30.80862 | 185 ft | 7 kts | 336° |
| 2026-05-08 04:42 | 36.90059 | 30.80859 | 185 ft | 0 kts | 336° |
| 2026-05-08 04:43 | 36.90063 | 30.80857 | 185 ft | 1 kts | 334° |
| 2026-05-08 04:43 | 36.90074 | 30.80850 | 185 ft | 3 kts | 335° |
| 2026-05-08 04:43 | 36.90097 | 30.80819 | 185 ft | 7 kts | 282° |
| 2026-05-08 04:44 | 36.90066 | 30.80758 | 185 ft | 11 kts | 197° |
| 2026-05-08 04:44 | 36.89974 | 30.80744 | 185 ft | 15 kts | 186° |
| 2026-05-08 04:44 | 36.89858 | 30.80728 | 185 ft | 17 kts | 186° |
| 2026-05-08 04:44 | 36.89735 | 30.80711 | 185 ft | 17 kts | 186° |
| 2026-05-08 04:45 | 36.89614 | 30.80695 | 185 ft | 13 kts | 186° |
| 2026-05-08 04:45 | 36.89568 | 30.80668 | 185 ft | 5 kts | 252° |
| 2026-05-08 04:45 | 36.89568 | 30.80619 | 185 ft | 6 kts | 276° |
| 2026-05-08 04:45 | 36.89558 | 30.80577 | 185 ft | 5 kts | 208° |
| 2026-05-08 04:46 | 36.89516 | 30.80567 | 185 ft | 6 kts | 187° |
| 2026-05-08 04:46 | 36.89500 | 30.80565 | 185 ft | 0 kts | 186° |